sensor_id;sensor_type;location;lat;lon;timestamp;P1;durP1;ratioP1;P2;durP2;ratioP2
21558;SDS011;10940;48.890;8.240;2024-03-02T00:00:03;1.00;;;1.00;;
21558;SDS011;10940;48.890;8.240;2024-03-02T00:02:45;1.83;;;1.73;;
21558;SDS011;10940;48.890;8.240;2024-03-02T00:05:13;1.30;;;1.20;;
21558;SDS011;10940;48.890;8.240;2024-03-02T00:07:41;1.17;;;1.17;;
21558;SDS011;10940;48.890;8.240;2024-03-02T00:10:09;2.00;;;1.90;;
21558;SDS011;10940;48.890;8.240;2024-03-02T00:12:41;1.17;;;1.17;;
21558;SDS011;10940;48.890;8.240;2024-03-02T00:15:53;1.20;;;1.20;;
21558;SDS011;10940;48.890;8.240;2024-03-02T00:18:06;1.27;;;1.20;;
21558;SDS011;10940;48.890;8.240;2024-03-02T00:20:33;1.13;;;1.13;;
21558;SDS011;10940;48.890;8.240;2024-03-02T00:23:02;0.83;;;0.83;;
21558;SDS011;10940;48.890;8.240;2024-03-02T00:25:44;0.90;;;0.90;;
21558;SDS011;10940;48.890;8.240;2024-03-02T00:33:27;1.23;;;1.13;;
21558;SDS011;10940;48.890;8.240;2024-03-02T00:35:55;1.00;;;1.00;;
21558;SDS011;10940;48.890;8.240;2024-03-02T00:38:21;0.97;;;0.97;;
21558;SDS011;10940;48.890;8.240;2024-03-02T00:40:47;1.37;;;1.27;;
21558;SDS011;10940;48.890;8.240;2024-03-02T00:46:03;1.23;;;1.23;;
21558;SDS011;10940;48.890;8.240;2024-03-02T00:48:29;0.87;;;0.87;;
21558;SDS011;10940;48.890;8.240;2024-03-02T00:50:56;1.10;;;1.10;;
21558;SDS011;10940;48.890;8.240;2024-03-02T00:53:23;0.90;;;0.90;;
21558;SDS011;10940;48.890;8.240;2024-03-02T00:55:51;1.13;;;1.13;;
21558;SDS011;10940;48.890;8.240;2024-03-02T00:58:17;0.90;;;0.90;;
21558;SDS011;10940;48.890;8.240;2024-03-02T01:00:43;0.77;;;0.77;;
21558;SDS011;10940;48.890;8.240;2024-03-02T01:03:08;2.50;;;1.40;;
21558;SDS011;10940;48.890;8.240;2024-03-02T01:05:35;0.97;;;0.97;;
21558;SDS011;10940;48.890;8.240;2024-03-02T01:08:01;0.70;;;0.70;;
21558;SDS011;10940;48.890;8.240;2024-03-02T01:10:27;0.70;;;0.70;;
21558;SDS011;10940;48.890;8.240;2024-03-02T01:12:52;0.70;;;0.70;;
21558;SDS011;10940;48.890;8.240;2024-03-02T01:15:18;3.13;;;1.13;;
21558;SDS011;10940;48.890;8.240;2024-03-02T01:17:44;0.60;;;0.60;;
21558;SDS011;10940;48.890;8.240;2024-03-02T01:20:10;0.80;;;0.80;;
21558;SDS011;10940;48.890;8.240;2024-03-02T01:22:36;1.10;;;1.10;;
21558;SDS011;10940;48.890;8.240;2024-03-02T01:25:02;1.77;;;1.37;;
21558;SDS011;10940;48.890;8.240;2024-03-02T01:27:28;0.87;;;0.87;;
21558;SDS011;10940;48.890;8.240;2024-03-02T01:29:53;1.23;;;1.20;;
21558;SDS011;10940;48.890;8.240;2024-03-02T01:32:19;1.80;;;1.73;;
21558;SDS011;10940;48.890;8.240;2024-03-02T01:34:45;1.03;;;1.03;;
21558;SDS011;10940;48.890;8.240;2024-03-02T01:37:11;1.47;;;1.43;;
21558;SDS011;10940;48.890;8.240;2024-03-02T01:39:36;1.70;;;1.60;;
21558;SDS011;10940;48.890;8.240;2024-03-02T01:42:02;1.40;;;1.40;;
21558;SDS011;10940;48.890;8.240;2024-03-02T01:44:27;1.67;;;1.57;;
21558;SDS011;10940;48.890;8.240;2024-03-02T01:46:53;1.40;;;0.93;;
21558;SDS011;10940;48.890;8.240;2024-03-02T01:49:19;1.10;;;1.10;;
21558;SDS011;10940;48.890;8.240;2024-03-02T01:51:44;0.83;;;0.83;;
21558;SDS011;10940;48.890;8.240;2024-03-02T01:54:11;1.10;;;1.10;;
21558;SDS011;10940;48.890;8.240;2024-03-02T01:56:36;1.10;;;1.10;;
21558;SDS011;10940;48.890;8.240;2024-03-02T01:59:02;1.17;;;1.17;;
21558;SDS011;10940;48.890;8.240;2024-03-02T02:01:28;0.80;;;0.80;;
21558;SDS011;10940;48.890;8.240;2024-03-02T02:03:54;0.97;;;0.97;;
21558;SDS011;10940;48.890;8.240;2024-03-02T02:06:20;1.67;;;1.60;;
21558;SDS011;10940;48.890;8.240;2024-03-02T02:08:46;1.37;;;1.37;;
21558;SDS011;10940;48.890;8.240;2024-03-02T02:11:14;1.40;;;1.33;;
21558;SDS011;10940;48.890;8.240;2024-03-02T02:13:40;3.90;;;3.20;;
21558;SDS011;10940;48.890;8.240;2024-03-02T02:16:06;1.13;;;1.13;;
21558;SDS011;10940;48.890;8.240;2024-03-02T02:18:33;1.43;;;1.37;;
21558;SDS011;10940;48.890;8.240;2024-03-02T02:20:58;1.13;;;1.13;;
21558;SDS011;10940;48.890;8.240;2024-03-02T02:23:24;1.13;;;1.13;;
21558;SDS011;10940;48.890;8.240;2024-03-02T02:25:50;1.10;;;0.90;;
21558;SDS011;10940;48.890;8.240;2024-03-02T02:28:15;0.90;;;0.90;;
21558;SDS011;10940;48.890;8.240;2024-03-02T02:30:41;1.33;;;1.23;;
21558;SDS011;10940;48.890;8.240;2024-03-02T02:33:07;1.00;;;1.00;;
21558;SDS011;10940;48.890;8.240;2024-03-02T02:35:34;1.00;;;1.00;;
21558;SDS011;10940;48.890;8.240;2024-03-02T02:37:59;1.20;;;1.20;;
21558;SDS011;10940;48.890;8.240;2024-03-02T02:40:25;1.90;;;1.80;;
21558;SDS011;10940;48.890;8.240;2024-03-02T02:42:51;1.80;;;1.67;;
21558;SDS011;10940;48.890;8.240;2024-03-02T02:45:17;1.77;;;1.67;;
21558;SDS011;10940;48.890;8.240;2024-03-02T02:47:43;0.70;;;0.70;;
21558;SDS011;10940;48.890;8.240;2024-03-02T02:50:10;1.20;;;1.20;;
21558;SDS011;10940;48.890;8.240;2024-03-02T02:52:37;1.37;;;1.27;;
21558;SDS011;10940;48.890;8.240;2024-03-02T02:55:05;1.07;;;1.07;;
21558;SDS011;10940;48.890;8.240;2024-03-02T02:57:33;0.90;;;0.90;;
21558;SDS011;10940;48.890;8.240;2024-03-02T03:00:04;1.37;;;1.27;;
21558;SDS011;10940;48.890;8.240;2024-03-02T03:02:41;0.90;;;0.90;;
21558;SDS011;10940;48.890;8.240;2024-03-02T03:05:08;1.00;;;1.00;;
21558;SDS011;10940;48.890;8.240;2024-03-02T03:07:34;0.70;;;0.70;;
21558;SDS011;10940;48.890;8.240;2024-03-02T03:10:01;0.80;;;0.80;;
21558;SDS011;10940;48.890;8.240;2024-03-02T03:12:28;1.10;;;1.10;;
21558;SDS011;10940;48.890;8.240;2024-03-02T03:14:54;0.80;;;0.80;;
21558;SDS011;10940;48.890;8.240;2024-03-02T03:17:20;0.80;;;0.80;;
21558;SDS011;10940;48.890;8.240;2024-03-02T03:19:47;0.90;;;0.90;;
21558;SDS011;10940;48.890;8.240;2024-03-02T03:22:12;0.70;;;0.70;;
21558;SDS011;10940;48.890;8.240;2024-03-02T03:24:38;0.77;;;0.77;;
21558;SDS011;10940;48.890;8.240;2024-03-02T03:27:04;0.60;;;0.60;;
21558;SDS011;10940;48.890;8.240;2024-03-02T03:29:30;0.83;;;0.83;;
21558;SDS011;10940;48.890;8.240;2024-03-02T03:31:55;0.80;;;0.80;;
21558;SDS011;10940;48.890;8.240;2024-03-02T03:34:21;1.23;;;1.23;;
21558;SDS011;10940;48.890;8.240;2024-03-02T03:36:46;1.27;;;1.17;;
21558;SDS011;10940;48.890;8.240;2024-03-02T03:39:12;1.10;;;1.10;;
21558;SDS011;10940;48.890;8.240;2024-03-02T03:41:38;1.33;;;1.30;;
21558;SDS011;10940;48.890;8.240;2024-03-02T03:44:05;1.33;;;1.33;;
21558;SDS011;10940;48.890;8.240;2024-03-02T03:46:30;0.83;;;0.83;;
21558;SDS011;10940;48.890;8.240;2024-03-02T03:48:56;0.93;;;0.93;;
21558;SDS011;10940;48.890;8.240;2024-03-02T03:51:21;1.20;;;1.20;;
21558;SDS011;10940;48.890;8.240;2024-03-02T03:53:48;0.90;;;0.90;;
21558;SDS011;10940;48.890;8.240;2024-03-02T03:56:13;1.13;;;1.13;;
21558;SDS011;10940;48.890;8.240;2024-03-02T03:58:40;0.93;;;0.93;;
21558;SDS011;10940;48.890;8.240;2024-03-02T04:01:05;1.17;;;1.17;;
21558;SDS011;10940;48.890;8.240;2024-03-02T04:03:31;1.17;;;1.17;;
21558;SDS011;10940;48.890;8.240;2024-03-02T04:05:56;0.80;;;0.80;;
21558;SDS011;10940;48.890;8.240;2024-03-02T04:08:22;0.83;;;0.83;;
21558;SDS011;10940;48.890;8.240;2024-03-02T04:10:47;1.13;;;1.13;;
21558;SDS011;10940;48.890;8.240;2024-03-02T04:13:13;1.37;;;1.37;;
21558;SDS011;10940;48.890;8.240;2024-03-02T04:15:38;1.10;;;1.10;;
21558;SDS011;10940;48.890;8.240;2024-03-02T04:18:05;1.43;;;1.33;;
21558;SDS011;10940;48.890;8.240;2024-03-02T04:20:31;1.20;;;1.20;;
21558;SDS011;10940;48.890;8.240;2024-03-02T04:22:57;1.17;;;1.17;;
21558;SDS011;10940;48.890;8.240;2024-03-02T04:25:22;1.60;;;1.60;;
21558;SDS011;10940;48.890;8.240;2024-03-02T04:27:48;1.20;;;1.20;;
21558;SDS011;10940;48.890;8.240;2024-03-02T04:30:13;1.90;;;1.80;;
21558;SDS011;10940;48.890;8.240;2024-03-02T04:32:39;1.00;;;1.00;;
21558;SDS011;10940;48.890;8.240;2024-03-02T04:35:05;1.20;;;1.20;;
21558;SDS011;10940;48.890;8.240;2024-03-02T04:37:35;0.93;;;0.93;;
21558;SDS011;10940;48.890;8.240;2024-03-02T04:40:00;1.73;;;1.63;;
21558;SDS011;10940;48.890;8.240;2024-03-02T04:42:26;1.70;;;1.60;;
21558;SDS011;10940;48.890;8.240;2024-03-02T04:44:51;1.50;;;1.40;;
21558;SDS011;10940;48.890;8.240;2024-03-02T04:47:17;1.93;;;1.83;;
21558;SDS011;10940;48.890;8.240;2024-03-02T04:49:42;1.03;;;1.03;;
21558;SDS011;10940;48.890;8.240;2024-03-02T04:52:08;2.10;;;2.00;;
21558;SDS011;10940;48.890;8.240;2024-03-02T04:54:34;1.50;;;1.47;;
21558;SDS011;10940;48.890;8.240;2024-03-02T04:57:20;0.87;;;0.87;;
21558;SDS011;10940;48.890;8.240;2024-03-02T04:59:45;1.57;;;1.27;;
21558;SDS011;10940;48.890;8.240;2024-03-02T05:02:11;1.60;;;1.60;;
21558;SDS011;10940;48.890;8.240;2024-03-02T05:04:39;1.33;;;1.33;;
21558;SDS011;10940;48.890;8.240;2024-03-02T05:07:05;2.50;;;2.30;;
21558;SDS011;10940;48.890;8.240;2024-03-02T05:09:31;1.97;;;1.87;;
21558;SDS011;10940;48.890;8.240;2024-03-02T05:11:56;3.23;;;2.23;;
21558;SDS011;10940;48.890;8.240;2024-03-02T05:14:40;1.93;;;1.83;;
21558;SDS011;10940;48.890;8.240;2024-03-02T05:17:06;2.10;;;2.00;;
21558;SDS011;10940;48.890;8.240;2024-03-02T05:19:32;1.73;;;1.63;;
21558;SDS011;10940;48.890;8.240;2024-03-02T05:21:57;1.40;;;1.40;;
21558;SDS011;10940;48.890;8.240;2024-03-02T05:24:23;3.10;;;2.80;;
21558;SDS011;10940;48.890;8.240;2024-03-02T05:26:48;3.20;;;3.00;;
21558;SDS011;10940;48.890;8.240;2024-03-02T05:29:14;1.97;;;1.83;;
21558;SDS011;10940;48.890;8.240;2024-03-02T05:31:40;1.93;;;1.83;;
21558;SDS011;10940;48.890;8.240;2024-03-02T05:34:06;2.57;;;2.37;;
21558;SDS011;10940;48.890;8.240;2024-03-02T05:36:31;2.10;;;2.00;;
21558;SDS011;10940;48.890;8.240;2024-03-02T05:38:57;1.60;;;1.57;;
21558;SDS011;10940;48.890;8.240;2024-03-02T05:41:22;1.37;;;1.37;;
21558;SDS011;10940;48.890;8.240;2024-03-02T05:43:48;1.20;;;1.20;;
21558;SDS011;10940;48.890;8.240;2024-03-02T05:46:14;1.40;;;1.40;;
21558;SDS011;10940;48.890;8.240;2024-03-02T05:48:40;1.40;;;1.40;;
21558;SDS011;10940;48.890;8.240;2024-03-02T05:51:05;1.53;;;1.53;;
21558;SDS011;10940;48.890;8.240;2024-03-02T05:53:31;1.87;;;1.77;;
21558;SDS011;10940;48.890;8.240;2024-03-02T05:55:57;1.93;;;1.83;;
21558;SDS011;10940;48.890;8.240;2024-03-02T05:58:22;1.17;;;1.17;;
21558;SDS011;10940;48.890;8.240;2024-03-02T06:01:06;1.17;;;1.17;;
21558;SDS011;10940;48.890;8.240;2024-03-02T06:03:32;1.40;;;1.40;;
21558;SDS011;10940;48.890;8.240;2024-03-02T06:05:58;1.13;;;1.13;;
21558;SDS011;10940;48.890;8.240;2024-03-02T06:08:24;5.13;;;1.93;;
21558;SDS011;10940;48.890;8.240;2024-03-02T06:10:50;1.10;;;1.10;;
21558;SDS011;10940;48.890;8.240;2024-03-02T06:13:15;1.10;;;1.10;;
21558;SDS011;10940;48.890;8.240;2024-03-02T06:15:41;1.77;;;1.67;;
21558;SDS011;10940;48.890;8.240;2024-03-02T06:18:06;5.67;;;2.00;;
21558;SDS011;10940;48.890;8.240;2024-03-02T06:20:32;2.23;;;2.13;;
21558;SDS011;10940;48.890;8.240;2024-03-02T06:22:58;1.30;;;1.30;;
21558;SDS011;10940;48.890;8.240;2024-03-02T06:25:24;1.37;;;1.37;;
21558;SDS011;10940;48.890;8.240;2024-03-02T06:27:50;1.73;;;1.47;;
21558;SDS011;10940;48.890;8.240;2024-03-02T06:30:15;1.90;;;1.80;;
21558;SDS011;10940;48.890;8.240;2024-03-02T06:32:41;1.30;;;1.20;;
21558;SDS011;10940;48.890;8.240;2024-03-02T06:35:06;1.87;;;1.77;;
21558;SDS011;10940;48.890;8.240;2024-03-02T06:37:35;2.63;;;2.13;;
21558;SDS011;10940;48.890;8.240;2024-03-02T06:40:05;1.90;;;1.80;;
21558;SDS011;10940;48.890;8.240;2024-03-02T06:42:32;2.07;;;1.93;;
21558;SDS011;10940;48.890;8.240;2024-03-02T06:44:58;1.60;;;1.50;;
21558;SDS011;10940;48.890;8.240;2024-03-02T06:47:24;2.30;;;2.10;;
21558;SDS011;10940;48.890;8.240;2024-03-02T06:49:50;1.47;;;1.47;;
21558;SDS011;10940;48.890;8.240;2024-03-02T06:52:15;1.63;;;1.63;;
21558;SDS011;10940;48.890;8.240;2024-03-02T06:54:41;1.90;;;1.80;;
21558;SDS011;10940;48.890;8.240;2024-03-02T06:57:07;1.10;;;1.10;;
21558;SDS011;10940;48.890;8.240;2024-03-02T06:59:32;1.60;;;1.50;;
21558;SDS011;10940;48.890;8.240;2024-03-02T07:01:58;3.13;;;2.57;;
21558;SDS011;10940;48.890;8.240;2024-03-02T07:04:24;1.30;;;1.30;;
21558;SDS011;10940;48.890;8.240;2024-03-02T07:06:50;1.57;;;1.47;;
21558;SDS011;10940;48.890;8.240;2024-03-02T07:09:16;1.00;;;1.00;;
21558;SDS011;10940;48.890;8.240;2024-03-02T07:11:42;1.70;;;1.60;;
21558;SDS011;10940;48.890;8.240;2024-03-02T07:14:08;0.93;;;0.93;;
21558;SDS011;10940;48.890;8.240;2024-03-02T07:16:33;1.33;;;1.33;;
21558;SDS011;10940;48.890;8.240;2024-03-02T07:19:03;0.73;;;0.73;;
21558;SDS011;10940;48.890;8.240;2024-03-02T07:21:28;1.10;;;1.10;;
21558;SDS011;10940;48.890;8.240;2024-03-02T07:23:54;1.20;;;1.20;;
21558;SDS011;10940;48.890;8.240;2024-03-02T07:26:20;1.43;;;1.43;;
21558;SDS011;10940;48.890;8.240;2024-03-02T07:28:46;15.40;;;2.60;;
21558;SDS011;10940;48.890;8.240;2024-03-02T07:31:13;1.30;;;1.30;;
21558;SDS011;10940;48.890;8.240;2024-03-02T07:33:38;1.90;;;1.67;;
21558;SDS011;10940;48.890;8.240;2024-03-02T07:36:04;0.80;;;0.80;;
21558;SDS011;10940;48.890;8.240;2024-03-02T07:38:30;0.93;;;0.93;;
21558;SDS011;10940;48.890;8.240;2024-03-02T07:40:56;2.57;;;2.10;;
21558;SDS011;10940;48.890;8.240;2024-03-02T07:43:22;0.90;;;0.90;;
21558;SDS011;10940;48.890;8.240;2024-03-02T07:45:48;1.27;;;1.03;;
21558;SDS011;10940;48.890;8.240;2024-03-02T07:48:14;0.67;;;0.67;;
21558;SDS011;10940;48.890;8.240;2024-03-02T07:50:40;1.60;;;1.50;;
21558;SDS011;10940;48.890;8.240;2024-03-02T07:53:05;0.90;;;0.90;;
21558;SDS011;10940;48.890;8.240;2024-03-02T07:55:32;1.00;;;1.00;;
21558;SDS011;10940;48.890;8.240;2024-03-02T07:57:58;1.40;;;1.33;;
21558;SDS011;10940;48.890;8.240;2024-03-02T08:00:25;1.87;;;1.77;;
21558;SDS011;10940;48.890;8.240;2024-03-02T08:02:51;1.10;;;1.10;;
21558;SDS011;10940;48.890;8.240;2024-03-02T08:05:17;2.23;;;2.13;;
21558;SDS011;10940;48.890;8.240;2024-03-02T08:07:46;0.60;;;0.60;;
21558;SDS011;10940;48.890;8.240;2024-03-02T08:10:12;1.60;;;1.50;;
21558;SDS011;10940;48.890;8.240;2024-03-02T08:12:38;2.07;;;1.97;;
21558;SDS011;10940;48.890;8.240;2024-03-02T08:15:04;1.70;;;1.60;;
21558;SDS011;10940;48.890;8.240;2024-03-02T08:17:30;1.43;;;1.43;;
21558;SDS011;10940;48.890;8.240;2024-03-02T08:19:56;1.23;;;1.23;;
21558;SDS011;10940;48.890;8.240;2024-03-02T08:22:23;1.20;;;1.20;;
21558;SDS011;10940;48.890;8.240;2024-03-02T08:24:50;0.73;;;0.73;;
21558;SDS011;10940;48.890;8.240;2024-03-02T08:27:16;1.03;;;1.03;;
21558;SDS011;10940;48.890;8.240;2024-03-02T08:29:42;0.73;;;0.73;;
21558;SDS011;10940;48.890;8.240;2024-03-02T08:32:07;0.70;;;0.70;;
21558;SDS011;10940;48.890;8.240;2024-03-02T08:34:34;0.80;;;0.80;;
21558;SDS011;10940;48.890;8.240;2024-03-02T08:37:03;3.20;;;1.63;;
21558;SDS011;10940;48.890;8.240;2024-03-02T08:39:29;0.93;;;0.93;;
21558;SDS011;10940;48.890;8.240;2024-03-02T08:41:55;2.40;;;1.43;;
21558;SDS011;10940;48.890;8.240;2024-03-02T08:44:20;0.97;;;0.97;;
21558;SDS011;10940;48.890;8.240;2024-03-02T08:46:46;3.87;;;1.47;;
21558;SDS011;10940;48.890;8.240;2024-03-02T08:49:12;0.97;;;0.97;;
21558;SDS011;10940;48.890;8.240;2024-03-02T08:51:38;0.60;;;0.60;;
21558;SDS011;10940;48.890;8.240;2024-03-02T08:54:03;1.00;;;1.00;;
21558;SDS011;10940;48.890;8.240;2024-03-02T08:56:30;1.40;;;0.90;;
21558;SDS011;10940;48.890;8.240;2024-03-02T08:58:56;0.50;;;0.50;;
21558;SDS011;10940;48.890;8.240;2024-03-02T09:01:21;1.27;;;1.20;;
21558;SDS011;10940;48.890;8.240;2024-03-02T09:03:47;1.03;;;1.03;;
21558;SDS011;10940;48.890;8.240;2024-03-02T09:06:14;0.77;;;0.77;;
21558;SDS011;10940;48.890;8.240;2024-03-02T09:08:41;0.93;;;0.93;;
21558;SDS011;10940;48.890;8.240;2024-03-02T09:11:08;0.50;;;0.50;;
21558;SDS011;10940;48.890;8.240;2024-03-02T09:13:35;1.67;;;1.27;;
21558;SDS011;10940;48.890;8.240;2024-03-02T09:16:02;0.50;;;0.50;;
21558;SDS011;10940;48.890;8.240;2024-03-02T09:18:27;1.07;;;1.07;;
21558;SDS011;10940;48.890;8.240;2024-03-02T09:20:53;5.53;;;1.57;;
21558;SDS011;10940;48.890;8.240;2024-03-02T09:23:19;0.60;;;0.60;;
21558;SDS011;10940;48.890;8.240;2024-03-02T09:25:44;0.60;;;0.60;;
21558;SDS011;10940;48.890;8.240;2024-03-02T09:28:10;0.60;;;0.60;;
21558;SDS011;10940;48.890;8.240;2024-03-02T09:30:36;0.60;;;0.60;;
21558;SDS011;10940;48.890;8.240;2024-03-02T09:33:01;0.80;;;0.80;;
21558;SDS011;10940;48.890;8.240;2024-03-02T09:35:27;0.50;;;0.50;;
21558;SDS011;10940;48.890;8.240;2024-03-02T09:37:52;0.70;;;0.70;;
21558;SDS011;10940;48.890;8.240;2024-03-02T09:40:20;0.70;;;0.70;;
21558;SDS011;10940;48.890;8.240;2024-03-02T09:42:47;0.90;;;0.90;;
21558;SDS011;10940;48.890;8.240;2024-03-02T09:45:17;0.50;;;0.50;;
21558;SDS011;10940;48.890;8.240;2024-03-02T09:47:47;0.40;;;0.40;;
21558;SDS011;10940;48.890;8.240;2024-03-02T09:50:13;0.60;;;0.60;;
21558;SDS011;10940;48.890;8.240;2024-03-02T09:52:39;0.60;;;0.60;;
21558;SDS011;10940;48.890;8.240;2024-03-02T09:55:07;2.53;;;1.53;;
21558;SDS011;10940;48.890;8.240;2024-03-02T09:57:33;0.70;;;0.70;;
21558;SDS011;10940;48.890;8.240;2024-03-02T09:59:59;1.77;;;1.27;;
21558;SDS011;10940;48.890;8.240;2024-03-02T10:02:24;0.60;;;0.60;;
21558;SDS011;10940;48.890;8.240;2024-03-02T10:04:50;0.50;;;0.50;;
21558;SDS011;10940;48.890;8.240;2024-03-02T10:07:16;1.47;;;0.70;;
21558;SDS011;10940;48.890;8.240;2024-03-02T10:09:43;0.70;;;0.70;;
21558;SDS011;10940;48.890;8.240;2024-03-02T10:12:14;0.53;;;0.53;;
21558;SDS011;10940;48.890;8.240;2024-03-02T10:14:42;0.77;;;0.77;;
21558;SDS011;10940;48.890;8.240;2024-03-02T10:17:09;0.33;;;0.33;;
21558;SDS011;10940;48.890;8.240;2024-03-02T10:19:36;0.40;;;0.40;;
21558;SDS011;10940;48.890;8.240;2024-03-02T10:22:04;0.60;;;0.60;;
21558;SDS011;10940;48.890;8.240;2024-03-02T10:24:35;0.97;;;0.70;;
21558;SDS011;10940;48.890;8.240;2024-03-02T10:27:10;1.13;;;0.97;;
21558;SDS011;10940;48.890;8.240;2024-03-02T10:29:47;0.73;;;0.73;;
21558;SDS011;10940;48.890;8.240;2024-03-02T10:32:13;0.60;;;0.60;;
21558;SDS011;10940;48.890;8.240;2024-03-02T10:34:40;0.60;;;0.60;;
21558;SDS011;10940;48.890;8.240;2024-03-02T10:37:07;0.30;;;0.30;;
21558;SDS011;10940;48.890;8.240;2024-03-02T10:39:33;0.87;;;0.87;;
21558;SDS011;10940;48.890;8.240;2024-03-02T10:42:01;0.80;;;0.80;;
21558;SDS011;10940;48.890;8.240;2024-03-02T10:44:28;0.60;;;0.60;;
21558;SDS011;10940;48.890;8.240;2024-03-02T10:46:55;0.40;;;0.40;;
21558;SDS011;10940;48.890;8.240;2024-03-02T10:49:22;0.70;;;0.60;;
21558;SDS011;10940;48.890;8.240;2024-03-02T10:51:49;0.50;;;0.50;;
21558;SDS011;10940;48.890;8.240;2024-03-02T10:54:14;0.40;;;0.40;;
21558;SDS011;10940;48.890;8.240;2024-03-02T10:56:40;0.53;;;0.50;;
21558;SDS011;10940;48.890;8.240;2024-03-02T11:01:59;0.77;;;0.77;;
21558;SDS011;10940;48.890;8.240;2024-03-02T11:04:26;0.57;;;0.53;;
21558;SDS011;10940;48.890;8.240;2024-03-02T11:09:27;0.40;;;0.40;;
21558;SDS011;10940;48.890;8.240;2024-03-02T11:12:03;0.20;;;0.20;;
21558;SDS011;10940;48.890;8.240;2024-03-02T11:14:37;0.30;;;0.30;;
21558;SDS011;10940;48.890;8.240;2024-03-02T11:17:08;0.70;;;0.70;;
21558;SDS011;10940;48.890;8.240;2024-03-02T11:19:34;0.40;;;0.40;;
21558;SDS011;10940;48.890;8.240;2024-03-02T11:22:02;0.40;;;0.40;;
21558;SDS011;10940;48.890;8.240;2024-03-02T11:24:28;0.20;;;0.20;;
21558;SDS011;10940;48.890;8.240;2024-03-02T11:26:58;0.30;;;0.30;;
21558;SDS011;10940;48.890;8.240;2024-03-02T11:32:04;0.20;;;0.20;;
21558;SDS011;10940;48.890;8.240;2024-03-02T11:34:44;0.63;;;0.63;;
21558;SDS011;10940;48.890;8.240;2024-03-02T11:37:12;0.20;;;0.20;;
21558;SDS011;10940;48.890;8.240;2024-03-02T11:39:42;0.97;;;0.97;;
21558;SDS011;10940;48.890;8.240;2024-03-02T11:42:09;0.30;;;0.30;;
21558;SDS011;10940;48.890;8.240;2024-03-02T11:44:39;0.30;;;0.30;;
21558;SDS011;10940;48.890;8.240;2024-03-02T11:47:06;0.23;;;0.23;;
21558;SDS011;10940;48.890;8.240;2024-03-02T11:49:39;0.30;;;0.30;;
21558;SDS011;10940;48.890;8.240;2024-03-02T11:52:07;0.47;;;0.47;;
21558;SDS011;10940;48.890;8.240;2024-03-02T11:54:36;0.40;;;0.40;;
21558;SDS011;10940;48.890;8.240;2024-03-02T11:57:06;0.40;;;0.40;;
21558;SDS011;10940;48.890;8.240;2024-03-02T11:59:32;0.20;;;0.20;;
21558;SDS011;10940;48.890;8.240;2024-03-02T12:01:59;0.63;;;0.50;;
21558;SDS011;10940;48.890;8.240;2024-03-02T12:04:26;0.40;;;0.40;;
21558;SDS011;10940;48.890;8.240;2024-03-02T12:06:55;0.27;;;0.27;;
21558;SDS011;10940;48.890;8.240;2024-03-02T12:09:24;0.40;;;0.40;;
21558;SDS011;10940;48.890;8.240;2024-03-02T12:12:00;0.73;;;0.50;;
21558;SDS011;10940;48.890;8.240;2024-03-02T12:14:30;0.20;;;0.20;;
21558;SDS011;10940;48.890;8.240;2024-03-02T12:17:00;0.20;;;0.20;;
21558;SDS011;10940;48.890;8.240;2024-03-02T12:19:27;0.20;;;0.20;;
21558;SDS011;10940;48.890;8.240;2024-03-02T12:21:55;0.83;;;0.70;;
21558;SDS011;10940;48.890;8.240;2024-03-02T12:24:21;0.20;;;0.20;;
21558;SDS011;10940;48.890;8.240;2024-03-02T12:26:49;0.30;;;0.30;;
21558;SDS011;10940;48.890;8.240;2024-03-02T12:29:15;0.30;;;0.30;;
21558;SDS011;10940;48.890;8.240;2024-03-02T12:31:42;0.20;;;0.20;;
21558;SDS011;10940;48.890;8.240;2024-03-02T12:34:10;0.20;;;0.20;;
21558;SDS011;10940;48.890;8.240;2024-03-02T12:36:38;0.47;;;0.47;;
21558;SDS011;10940;48.890;8.240;2024-03-02T12:39:04;0.27;;;0.27;;
21558;SDS011;10940;48.890;8.240;2024-03-02T12:41:30;0.40;;;0.40;;
21558;SDS011;10940;48.890;8.240;2024-03-02T12:43:55;0.20;;;0.20;;
21558;SDS011;10940;48.890;8.240;2024-03-02T12:46:21;0.20;;;0.20;;
21558;SDS011;10940;48.890;8.240;2024-03-02T12:48:47;0.30;;;0.30;;
21558;SDS011;10940;48.890;8.240;2024-03-02T12:51:12;0.20;;;0.20;;
21558;SDS011;10940;48.890;8.240;2024-03-02T12:53:39;0.20;;;0.20;;
21558;SDS011;10940;48.890;8.240;2024-03-02T12:56:05;0.27;;;0.27;;
21558;SDS011;10940;48.890;8.240;2024-03-02T12:58:38;0.30;;;0.30;;
21558;SDS011;10940;48.890;8.240;2024-03-02T13:01:07;0.53;;;0.40;;
21558;SDS011;10940;48.890;8.240;2024-03-02T13:03:39;0.23;;;0.23;;
21558;SDS011;10940;48.890;8.240;2024-03-02T13:06:05;0.30;;;0.30;;
21558;SDS011;10940;48.890;8.240;2024-03-02T13:08:32;0.20;;;0.20;;
21558;SDS011;10940;48.890;8.240;2024-03-02T13:11:01;0.20;;;0.20;;
21558;SDS011;10940;48.890;8.240;2024-03-02T13:13:30;0.10;;;0.10;;
21558;SDS011;10940;48.890;8.240;2024-03-02T13:15:56;0.60;;;0.60;;
21558;SDS011;10940;48.890;8.240;2024-03-02T13:18:21;0.93;;;0.73;;
21558;SDS011;10940;48.890;8.240;2024-03-02T13:20:47;0.10;;;0.10;;
21558;SDS011;10940;48.890;8.240;2024-03-02T13:23:13;0.47;;;0.47;;
21558;SDS011;10940;48.890;8.240;2024-03-02T13:25:39;0.20;;;0.20;;
21558;SDS011;10940;48.890;8.240;2024-03-02T13:28:05;0.20;;;0.20;;
21558;SDS011;10940;48.890;8.240;2024-03-02T13:30:31;4.47;;;0.80;;
21558;SDS011;10940;48.890;8.240;2024-03-02T13:32:57;0.20;;;0.20;;
21558;SDS011;10940;48.890;8.240;2024-03-02T13:35:23;0.20;;;0.20;;
21558;SDS011;10940;48.890;8.240;2024-03-02T13:37:48;0.30;;;0.30;;
21558;SDS011;10940;48.890;8.240;2024-03-02T13:40:15;0.20;;;0.20;;
21558;SDS011;10940;48.890;8.240;2024-03-02T13:42:44;0.20;;;0.20;;
21558;SDS011;10940;48.890;8.240;2024-03-02T13:45:11;0.30;;;0.30;;
21558;SDS011;10940;48.890;8.240;2024-03-02T13:47:37;0.10;;;0.10;;
21558;SDS011;10940;48.890;8.240;2024-03-02T13:50:03;0.40;;;0.40;;
21558;SDS011;10940;48.890;8.240;2024-03-02T13:52:30;0.83;;;0.83;;
21558;SDS011;10940;48.890;8.240;2024-03-02T13:54:56;0.30;;;0.30;;
21558;SDS011;10940;48.890;8.240;2024-03-02T13:57:21;0.30;;;0.30;;
21558;SDS011;10940;48.890;8.240;2024-03-02T13:59:47;0.20;;;0.20;;
21558;SDS011;10940;48.890;8.240;2024-03-02T14:02:13;0.10;;;0.10;;
21558;SDS011;10940;48.890;8.240;2024-03-02T14:04:40;0.20;;;0.20;;
21558;SDS011;10940;48.890;8.240;2024-03-02T14:07:05;3.03;;;0.60;;
21558;SDS011;10940;48.890;8.240;2024-03-02T14:09:36;0.40;;;0.40;;
21558;SDS011;10940;48.890;8.240;2024-03-02T14:12:01;0.30;;;0.30;;
21558;SDS011;10940;48.890;8.240;2024-03-02T14:14:27;0.20;;;0.20;;
21558;SDS011;10940;48.890;8.240;2024-03-02T14:16:57;0.40;;;0.40;;
21558;SDS011;10940;48.890;8.240;2024-03-02T14:19:28;0.37;;;0.37;;
21558;SDS011;10940;48.890;8.240;2024-03-02T14:21:54;0.37;;;0.37;;
21558;SDS011;10940;48.890;8.240;2024-03-02T14:24:20;0.30;;;0.30;;
21558;SDS011;10940;48.890;8.240;2024-03-02T14:26:49;0.20;;;0.20;;
21558;SDS011;10940;48.890;8.240;2024-03-02T14:29:14;0.17;;;0.17;;
21558;SDS011;10940;48.890;8.240;2024-03-02T14:31:40;0.20;;;0.20;;
21558;SDS011;10940;48.890;8.240;2024-03-02T14:34:06;0.30;;;0.30;;
21558;SDS011;10940;48.890;8.240;2024-03-02T14:36:31;0.20;;;0.20;;
21558;SDS011;10940;48.890;8.240;2024-03-02T14:38:57;0.20;;;0.20;;
21558;SDS011;10940;48.890;8.240;2024-03-02T14:41:23;0.40;;;0.40;;
21558;SDS011;10940;48.890;8.240;2024-03-02T14:43:49;0.33;;;0.33;;
21558;SDS011;10940;48.890;8.240;2024-03-02T14:46:15;0.30;;;0.30;;
21558;SDS011;10940;48.890;8.240;2024-03-02T14:48:42;0.50;;;0.43;;
21558;SDS011;10940;48.890;8.240;2024-03-02T14:51:09;0.20;;;0.20;;
21558;SDS011;10940;48.890;8.240;2024-03-02T14:53:35;0.17;;;0.17;;
21558;SDS011;10940;48.890;8.240;2024-03-02T14:56:03;0.40;;;0.40;;
21558;SDS011;10940;48.890;8.240;2024-03-02T14:58:29;0.30;;;0.30;;
21558;SDS011;10940;48.890;8.240;2024-03-02T15:00:54;0.53;;;0.53;;